createdAt,value
2019-05-20T00:01:07.052Z,13.40
2019-05-20T00:06:12.287Z,13.30
2019-05-20T00:11:17.207Z,13.30
2019-05-20T00:16:22.314Z,13.30
2019-05-20T00:21:27.262Z,13.30
2019-05-20T00:26:32.287Z,13.20
2019-05-20T00:31:37.341Z,13.10
2019-05-20T00:36:42.499Z,13.00
2019-05-20T00:41:47.655Z,12.90
2019-05-20T00:46:52.712Z,12.90
2019-05-20T00:51:57.808Z,12.80
2019-05-20T00:57:02.803Z,12.80
2019-05-20T01:02:07.852Z,12.70
2019-05-20T01:07:12.868Z,12.70
2019-05-20T01:12:17.842Z,12.60
2019-05-20T01:17:22.923Z,12.50
2019-05-20T01:22:27.963Z,12.50
2019-05-20T01:27:33.008Z,12.40
2019-05-20T01:32:38.093Z,12.40
2019-05-20T01:37:44.051Z,12.40
2019-05-20T01:42:49.175Z,12.50
2019-05-20T01:47:54.283Z,12.50
2019-05-20T01:52:59.335Z,12.50
2019-05-20T01:58:04.387Z,12.60
2019-05-20T02:03:09.679Z,12.60
2019-05-20T02:08:14.735Z,12.70
2019-05-20T02:13:19.847Z,12.60
2019-05-20T02:18:25.151Z,12.50
2019-05-20T02:23:30.337Z,12.50
2019-05-20T02:28:37.083Z,12.30
2019-05-20T02:33:51.681Z,12.20
2019-05-20T02:38:48.733Z,12.10
2019-05-20T02:43:53.819Z,12.10
2019-05-20T02:48:58.848Z,12.10
2019-05-20T02:54:03.975Z,12.10
2019-05-20T02:59:09.069Z,12.00
2019-05-20T03:04:14.198Z,11.90
2019-05-20T03:09:19.233Z,11.90
2019-05-20T03:14:24.357Z,12.00
2019-05-20T03:19:29.475Z,12.10
2019-05-20T03:24:34.603Z,12.10
2019-05-20T03:29:40.614Z,12.10
2019-05-20T03:34:57.062Z,12.10
2019-05-20T03:39:52.280Z,12.00
2019-05-20T03:44:57.259Z,12.10
2019-05-20T03:50:02.364Z,12.00
2019-05-20T03:55:08.874Z,12.10
2019-05-20T04:00:13.957Z,12.20
2019-05-20T04:05:18.976Z,12.30
2019-05-20T04:10:23.992Z,12.40
2019-05-20T04:15:29.013Z,12.60
2019-05-20T04:20:34.070Z,12.70
2019-05-20T04:25:39.031Z,12.90
2019-05-20T04:30:44.134Z,13.00
2019-05-20T04:35:49.993Z,13.20
2019-05-20T04:40:55.071Z,13.50
2019-05-20T04:46:00.681Z,13.70
2019-05-20T04:51:05.776Z,14.00
2019-05-20T04:56:10.807Z,14.20
2019-05-20T05:01:17.024Z,14.50
2019-05-20T05:06:22.252Z,14.80
2019-05-20T05:11:27.355Z,15.00
2019-05-20T05:16:32.476Z,15.30
2019-05-20T05:21:37.608Z,15.50
2019-05-20T05:26:42.700Z,15.80
2019-05-20T05:31:47.731Z,15.90
2019-05-20T05:36:53.055Z,16.00
2019-05-20T05:41:58.115Z,16.10
2019-05-20T05:47:03.135Z,16.20
2019-05-20T05:52:09.300Z,16.50
2019-05-20T05:57:14.424Z,16.80
2019-05-20T06:02:19.557Z,17.10
2019-05-20T06:07:24.518Z,17.30
2019-05-20T06:12:29.574Z,17.50
2019-05-20T06:17:34.556Z,17.60
2019-05-20T06:22:39.595Z,17.70
2019-05-20T06:27:44.710Z,17.80
2019-05-20T06:32:49.735Z,18.10
2019-05-20T06:37:59.498Z,18.60
2019-05-20T06:43:04.627Z,18.90
2019-05-20T06:48:09.631Z,19.10
2019-05-20T06:53:14.655Z,19.70
2019-05-20T06:58:19.778Z,19.90
2019-05-20T07:03:24.859Z,20.00
2019-05-20T07:08:29.990Z,20.20
2019-05-20T07:13:34.931Z,20.30
2019-05-20T07:18:39.992Z,20.40
2019-05-20T07:23:45.096Z,20.70
2019-05-20T07:28:50.146Z,21.20
2019-05-20T07:33:55.268Z,21.40
2019-05-20T07:39:00.540Z,21.70
2019-05-20T07:44:07.270Z,21.70
2019-05-20T07:49:12.612Z,21.70
2019-05-20T07:54:19.186Z,21.90
2019-05-20T07:59:26.135Z,22.30
2019-05-20T08:04:31.298Z,22.70
2019-05-20T08:09:44.631Z,23.20
2019-05-20T08:14:44.147Z,23.40
2019-05-20T08:19:49.239Z,23.30
2019-05-20T08:24:54.444Z,23.10
2019-05-20T08:29:59.509Z,23.30
2019-05-20T08:35:06.452Z,23.80
2019-05-20T08:40:11.755Z,24.50
2019-05-20T08:45:17.050Z,24.70
2019-05-20T08:50:22.141Z,24.30
2019-05-20T08:55:27.248Z,24.50
2019-05-20T09:00:32.321Z,24.50
2019-05-20T09:05:37.434Z,24.60
2019-05-20T09:10:43.494Z,24.60
2019-05-20T09:15:53.839Z,24.30
2019-05-20T09:20:58.894Z,24.10
2019-05-20T09:26:04.371Z,24.30
2019-05-20T09:31:09.542Z,25.10
2019-05-20T09:36:14.686Z,25.70
2019-05-20T09:41:19.839Z,25.20
2019-05-20T09:46:24.902Z,24.90
2019-05-20T09:51:29.887Z,24.40
2019-05-20T09:56:35.061Z,24.30
2019-05-20T10:01:40.534Z,24.60
2019-05-20T10:06:46.602Z,24.80
2019-05-20T10:11:51.659Z,24.70
2019-05-20T10:16:56.723Z,24.60
2019-05-20T10:22:01.780Z,24.20
2019-05-20T10:27:06.980Z,23.90
2019-05-20T10:32:12.048Z,23.60
2019-05-20T10:37:17.075Z,23.60
2019-05-20T10:42:22.715Z,23.60
2019-05-20T10:47:27.946Z,23.80
2019-05-20T10:52:33.082Z,24.10
2019-05-20T10:57:38.205Z,24.00
2019-05-20T11:02:43.348Z,23.70
2019-05-20T11:07:48.493Z,23.40
2019-05-20T11:12:53.496Z,23.50
2019-05-20T11:17:58.596Z,24.30
2019-05-20T11:23:03.659Z,25.20
2019-05-20T11:28:11.826Z,25.50
2019-05-20T11:33:15.447Z,25.70
2019-05-20T11:38:20.471Z,25.50
2019-05-20T11:43:25.431Z,25.50
2019-05-20T11:48:30.437Z,25.30
2019-05-20T11:53:35.483Z,25.10
2019-05-20T11:58:40.627Z,25.00
2019-05-20T12:03:45.690Z,26.00
2019-05-20T12:08:50.652Z,27.00
2019-05-20T12:13:55.615Z,27.40
2019-05-20T12:19:00.669Z,26.90
2019-05-20T12:24:06.602Z,26.80
2019-05-20T12:29:11.663Z,26.40
2019-05-20T12:34:16.669Z,26.00
2019-05-20T12:39:21.815Z,25.70
2019-05-20T12:44:26.772Z,25.50
2019-05-20T12:49:31.872Z,25.10
2019-05-20T12:54:36.962Z,24.60
2019-05-20T12:59:43.094Z,24.20
2019-05-20T13:04:48.425Z,23.70
2019-05-20T13:09:53.487Z,23.50
2019-05-20T13:14:58.501Z,23.40
2019-05-20T13:20:03.596Z,23.50
2019-05-20T13:25:08.893Z,23.70
2019-05-20T13:30:14.363Z,24.00
2019-05-20T13:35:19.523Z,24.30
2019-05-20T13:40:24.588Z,24.60
2019-05-20T13:45:29.611Z,24.90
2019-05-20T13:50:34.931Z,24.90
2019-05-20T13:55:40.024Z,25.00
2019-05-20T14:00:45.108Z,25.30
2019-05-20T14:05:51.180Z,26.00
2019-05-20T14:11:04.488Z,26.70
2019-05-20T14:16:02.996Z,26.30
2019-05-20T14:21:08.154Z,25.80
2019-05-20T14:26:13.353Z,25.80
2019-05-20T14:31:18.325Z,26.40
2019-05-20T14:36:38.457Z,26.90
2019-05-20T14:41:31.083Z,28.30
2019-05-20T14:46:36.085Z,29.30
2019-05-20T14:51:41.304Z,29.40
2019-05-20T14:56:46.287Z,29.40
2019-05-20T15:01:51.401Z,29.50
2019-05-20T15:06:56.483Z,29.60
2019-05-20T15:12:01.518Z,29.90
2019-05-20T15:17:06.639Z,30.70
2019-05-20T15:22:11.584Z,31.40
2019-05-20T15:27:16.621Z,31.90
2019-05-20T15:32:21.810Z,32.70
2019-05-20T15:37:26.999Z,33.60
2019-05-20T15:42:32.195Z,33.30
2019-05-20T15:52:43.837Z,33.70
2019-05-20T15:57:48.912Z,33.60
2019-05-20T16:02:53.952Z,32.50
2019-05-20T16:07:59.004Z,34.10
2019-05-20T16:13:04.111Z,35.50
2019-05-20T16:18:09.165Z,36.20
2019-05-20T16:23:14.310Z,36.50
2019-05-20T16:28:19.477Z,37.10
2019-05-20T16:33:24.660Z,37.30
2019-05-20T16:38:29.763Z,37.60
2019-05-20T16:43:35.008Z,38.40
2019-05-20T16:48:40.179Z,38.00
2019-05-20T16:53:45.291Z,34.80
2019-05-20T16:58:50.283Z,31.50
2019-05-20T17:03:55.474Z,29.40
2019-05-20T17:09:00.455Z,27.50
2019-05-20T17:14:05.643Z,27.60
2019-05-20T17:19:10.619Z,30.40
2019-05-20T17:24:15.715Z,32.20
2019-05-20T17:29:21.129Z,33.10
2019-05-20T17:34:27.315Z,33.00
2019-05-20T17:39:32.506Z,32.80
2019-05-20T17:44:37.655Z,32.00
2019-05-20T17:49:42.950Z,31.60
2019-05-20T17:54:48.055Z,30.30
2019-05-20T17:59:53.175Z,27.60
2019-05-20T18:04:58.147Z,25.40
2019-05-20T18:10:04.767Z,24.00
2019-05-20T18:15:10.334Z,23.10
2019-05-20T18:20:15.586Z,22.40
2019-05-20T18:25:20.624Z,21.70
2019-05-20T18:30:25.739Z,21.30
2019-05-20T18:35:30.893Z,21.10
2019-05-20T18:40:35.981Z,20.90
2019-05-20T18:45:40.999Z,20.80
2019-05-20T18:50:46.103Z,20.50
2019-05-20T18:55:51.135Z,20.20
2019-05-20T19:00:56.284Z,19.90
2019-05-20T19:06:01.234Z,19.70
2019-05-20T19:11:06.486Z,19.40
2019-05-20T19:16:11.441Z,19.30
2019-05-20T19:21:16.611Z,19.00
2019-05-20T19:26:25.084Z,18.80
2019-05-20T19:31:28.332Z,18.50
2019-05-20T19:36:33.348Z,18.40
2019-05-20T19:41:38.458Z,18.10
2019-05-20T19:46:43.563Z,17.90
2019-05-20T19:51:48.679Z,17.80
2019-05-20T19:56:53.871Z,17.60
2019-05-20T20:01:58.918Z,17.50
2019-05-20T20:07:04.549Z,17.30
2019-05-20T20:12:09.583Z,17.10
2019-05-20T20:17:15.627Z,17.00
2019-05-20T20:22:20.628Z,16.80
2019-05-20T20:27:25.753Z,16.70
2019-05-20T20:32:37.771Z,16.70
2019-05-20T20:37:37.480Z,16.60
2019-05-20T20:42:42.616Z,16.40
2019-05-20T20:47:47.627Z,16.30
2019-05-20T20:52:52.702Z,16.20
2019-05-20T20:57:57.711Z,16.10
2019-05-20T21:03:02.783Z,16.00
2019-05-20T21:08:07.999Z,15.90
2019-05-20T21:13:12.984Z,15.80
2019-05-20T21:18:18.012Z,15.80
2019-05-20T21:23:23.079Z,15.70
2019-05-20T21:28:28.239Z,15.70
2019-05-20T21:33:34.255Z,15.60
2019-05-20T21:38:39.211Z,15.30
2019-05-20T21:43:44.306Z,15.20
2019-05-20T21:48:49.275Z,15.00
2019-05-20T21:53:54.314Z,14.90
2019-05-20T21:58:59.290Z,14.70
2019-05-20T22:04:04.411Z,14.60
2019-05-20T22:09:09.596Z,14.40
2019-05-20T22:14:14.671Z,14.20
2019-05-20T22:19:19.774Z,14.00
2019-05-20T22:24:24.844Z,13.90
2019-05-20T22:29:29.791Z,13.80
2019-05-20T22:34:34.796Z,13.70
2019-05-20T22:39:39.768Z,13.60
2019-05-20T22:44:44.944Z,13.60
2019-05-20T22:49:49.918Z,13.50
2019-05-20T22:54:54.968Z,13.40
2019-05-20T22:59:59.975Z,13.20
2019-05-20T23:05:06.282Z,13.20
2019-05-20T23:10:11.541Z,13.10
2019-05-20T23:15:16.664Z,12.90
2019-05-20T23:20:21.650Z,12.80
2019-05-20T23:25:26.683Z,12.80
2019-05-20T23:30:31.767Z,12.70
2019-05-20T23:35:36.852Z,12.70
2019-05-20T23:40:42.955Z,12.60
2019-05-20T23:45:48.010Z,12.60
2019-05-20T23:50:53.021Z,12.40
2019-05-20T23:55:58.033Z,12.40
